Tiempo atmosférico en la estación meteorológica de Adeje, Santa Cruz de Tenerife (130 m.)



Fecha
DESCASC
Temp. máxima en grados centígrados (hora)
DESCASC
Temp. mínima en grados centígrados (hora)
DESCASC
Temp. media en grados centígrados
DESCASC
Racha de viento máxima en m/sg (hora)
DESCASC
Velocidad máxima media en intervalos de 10 minutos(hora)
DESCASC
Precipitaciones diarias en mm
DESCASC
Precipitaciones de 00:00 a 06:00 en mm
DESCASC
Precipitaciones de 06:00 a 12:00 en mm
DESCASC
Precipitaciones de 12:00 a 18:00 en mm
DESCASC
Precipitaciones de 18:00 a 24:00 en mm
DESCASC
08-12-2019 -- (--) -- (--) -- -- (--) -- (--) -- 0 0 0 --
07-12-2019 22.1 (16:30) 16.6 (23:40) 19.4 6.67 (01:00) 3.89 (01:00) 0 0 0 0 0
06-12-2019 23.7 (14:00) 16.2 (03:50) 20 7.78 (17:40) 3.89 (14:20) 0 0 0 0 0
05-12-2019 22.3 (12:40) 15.4 (00:00) 18.8 7.22 (14:10) 3.61 (21:30) 0 0 0 0 0
04-12-2019 23 (11:30) 16.8 (07:00) 19.9 6.67 (00:30) 4.17 (00:40) 0 0 0 0 0
03-12-2019 24.2 (13:00) 16.7 (00:00) 20.5 7.5 (23:59) 3.89 (14:40) 0 0 0 0 0
02-12-2019 24 (13:50) 16.8 (00:00) 20.4 7.78 (16:50) 3.89 (16:10) 0 0 0 0 0
01-12-2019 24.2 (13:50) 16.3 (00:00) 20.3 6.11 (13:50) 3.33 (14:00) 0 0 0 0 0
30-11-2019 27.1 (14:50) 16.6 (00:00) 21.9 4.72 (10:50) 2.22 (16:00) 0 0 0 0 0
29-11-2019 30.7 (13:40) 15.8 (00:00) 23.3 9.44 (12:10) 3.61 (13:50) 0 0 0 0 0
28-11-2019 23.5 (13:20) 16.3 (02:40) 19.9 4.17 (13:00) 2.5 (13:30) 0 0 0 0 0
27-11-2019 23.9 (13:30) 17 (00:00) 20.4 5 (14:00) 2.78 (13:10) 0 0 0 0 0
26-11-2019 24.1 (14:50) 16 (00:00) 20.1 5 (16:30) 2.78 (12:50) 0 0 0 0 0
25-11-2019 23.9 (13:10) 17.2 (08:30) 20.6 4.72 (13:00) 2.78 (14:20) 0 0 0 0 0
24-11-2019 24.6 (12:00) 16.5 (00:00) 20.6 5.28 (14:00) 3.06 (12:10) 0 0 0 0 0
23-11-2019 25.4 (15:30) 16.2 (00:00) 20.8 6.67 (15:00) 3.06 (15:00) 0 0 0 0 0
22-11-2019 24.4 (12:50) 17.4 (00:00) 20.9 6.39 (00:40) 3.33 (12:50) 1 1 0 0 0
21-11-2019 23.2 (16:00) 16.2 (00:00) 19.7 9.17 (18:00) 3.89 (12:50) 0.6 0 0 0 0.6
20-11-2019 22.9 (14:30) 15.2 (06:50) 19 8.89 (15:40) 4.72 (15:30) 0 0 0 0 0
19-11-2019 24 (12:20) 15.6 (00:00) 19.8 8.06 (13:40) 3.61 (15:00) 0 0 0 0 0
18-11-2019 23.4 (12:10) 15.7 (00:00) 19.5 7.22 (14:20) 3.06 (14:20) 0 0 0 0 0
17-11-2019 22.6 (16:30) 17 (00:00) 19.8 5.83 (16:40) 2.78 (16:40) 0 0 0 0 0
16-11-2019 23.7 (13:30) 16.4 (00:00) 20.1 5.83 (12:20) 3.33 (15:50) 0 0 0 0 0
15-11-2019 24.1 (16:20) 18.2 (00:00) 21.2 5.83 (12:40) 2.78 (13:40) 0 0 0 0 0
14-11-2019 24.1 (14:20) 17.5 (00:00) 20.8 5 (12:00) 2.78 (12:00) 0 0 0 0 0
13-11-2019 24.9 (15:40) 17.4 (00:00) 21.1 6.39 (13:50) 2.78 (11:20) 0 0 0 0 0
12-11-2019 25.5 (14:50) 18 (00:00) 21.8 5.28 (13:00) 3.06 (11:40) 0 0 0 0 0
11-11-2019 25.1 (14:50) 16.9 (07:30) 21 6.39 (14:20) 3.06 (14:30) 0 0 0 0 0

Gráficas

Temp. máximas Temp. mínimas Temp. medias Precipitaciones Rachas de viento máximas Velocidades máximas media en intervalos de 10 minutos

Datos horarios

Fecha y hora oficial Temperatura (ºC) Velocidad del viento (km/h) Dirección del viento Racha (km/h) Dirección de racha Precipitación (mm) Presión (hPa) Tendencia (hPa) Humedad (%)
2019-12-10 23:00:00 -- -- -- -- -- -- -- -- --
2019-12-10 22:00:00 -- -- -- -- -- -- -- -- --
2019-12-10 21:00:00 17.4 0 Calma 5 Nordeste 0 -- -- 72
2019-12-10 20:00:00 18.1 0 Calma 4 Norte 0 -- -- 72
2019-12-10 19:00:00 18.6 2 Nordeste 3 Sudoeste 0 -- -- 70
2019-12-10 18:00:00 21 4 Sudoeste 10 Sudoeste 0 -- -- 59
2019-12-10 17:00:00 22.3 5 Oeste 12 Oeste 0 -- -- 55
2019-12-10 16:00:00 22.2 8 Oeste 15 Sudoeste 0 -- -- 54
2019-12-10 15:00:00 22.7 6 Sudoeste 15 Sudoeste 0 -- -- 52
2019-12-10 14:00:00 22.8 5 Oeste 15 Oeste 0 -- -- 49
2019-12-10 13:00:00 22.4 8 Oeste 15 Sudoeste 0 -- -- 51
2019-12-10 12:00:00 22 7 Oeste 14 Sudoeste 0 -- -- 55
2019-12-10 11:00:00 20.8 5 Oeste 12 Oeste 0 -- -- 58
2019-12-10 10:00:00 17 3 Sur 5 Sur 0 -- -- 71
2019-12-10 09:00:00 15.9 2 Nordeste 6 Este 0 -- -- 74
2019-12-10 08:00:00 15.3 3 Este 10 Nordeste 0 -- -- 76
2019-12-10 07:00:00 15.2 4 Nordeste 9 Nordeste 0 -- -- 75
2019-12-10 06:00:00 15.7 4 Este 12 Este 0 -- -- 72
2019-12-10 05:00:00 15.2 3 Nordeste 8 Nordeste 0 -- -- 73
2019-12-10 04:00:00 14.6 2 Nordeste 6 Nordeste 0 -- -- 75
2019-12-10 03:00:00 15.4 3 Nordeste 7 Norte 0 -- -- 73
2019-12-10 02:00:00 15.1 0 Calma 6 Nordeste 0 -- -- 73
2019-12-10 01:00:00 15.8 4 Este 12 Este 0 -- -- 69
2019-12-10 00:00:00 15.1 0 Calma 8 Este 0 -- -- 72
2019-12-09 23:00:00 16.6 0 Calma 8 Este 0 -- -- 70
2019-12-09 22:00:00 16.9 5 Este 9 Este 0 -- -- 66
2019-12-09 21:00:00 16.9 0 Calma 7 Este 0 -- -- 69
2019-12-09 20:00:00 17.5 3 Sudeste 6 Sur 0 -- -- 67
2019-12-09 19:00:00 18.9 4 Sudoeste 7 Sudoeste 0 -- -- 65
2019-12-09 18:00:00 21.5 4 Sudoeste 9 Sudoeste 0 -- -- 54
2019-12-09 17:00:00 23.3 5 Oeste 13 Oeste 0 -- -- 39
2019-12-09 16:00:00 23.3 6 Oeste 17 Oeste 0 -- -- 43
2019-12-09 15:00:00 23.4 8 Oeste 17 Oeste 0 -- -- 44
2019-12-09 14:00:00 23 7 Oeste 18 Oeste 0 -- -- 48
2019-12-09 13:00:00 22.8 10 Oeste 18 Oeste 0 -- -- 46
2019-12-09 12:00:00 22.2 7 Oeste 14 Oeste 0 -- -- 53
2019-12-09 11:00:00 21.4 6 Oeste 12 Oeste 0 -- -- 55
2019-12-09 10:00:00 18.1 4 Noroeste 12 Oeste 0 -- -- 68
2019-12-09 09:00:00 16.6 4 Nordeste 9 Norte 0 -- -- 71
2019-12-09 08:00:00 16 6 Nordeste 12 Nordeste 0 -- -- 73
2019-12-09 07:00:00 16.2 8 Nordeste 11 Nordeste 0 -- -- 74
2019-12-09 06:00:00 15.9 2 Nordeste 12 Nordeste 0 -- -- 75
2019-12-09 05:00:00 15.4 3 Nordeste 7 Nordeste 0 -- -- 75
2019-12-09 04:00:00 16.5 5 Este 12 Nordeste 0 -- -- 72
2019-12-09 03:00:00 16.6 5 Nordeste 9 Oeste 0 -- -- 73
2019-12-09 02:00:00 17.4 3 Nordeste 14 Nordeste 0 -- -- 70
2019-12-09 01:00:00 17 5 Norte 8 Nordeste 0 -- -- 72
2019-12-09 00:00:00 17.5 5 Nordeste 13 Norte 0 -- -- 70
2019-12-08 23:00:00 17 2 Sur 9 Norte 0 -- -- 73
2019-12-08 22:00:00 17.9 4 Nordeste 9 Nordeste 0 -- -- 69
2019-12-08 21:00:00 17.9 4 Oeste 12 Noroeste 0 -- -- 69
2019-12-08 20:00:00 17.7 6 Nordeste 9 Nordeste 0 -- -- 72
2019-12-08 19:00:00 18.4 4 Norte 8 Norte 0 -- -- 70
2019-12-08 18:00:00 19.9 0 Calma 13 Oeste 0 -- -- 66
2019-12-08 17:00:00 20.1 5 Noroeste 17 Noroeste 0 -- -- 66
2019-12-08 16:00:00 19.8 4 Oeste 11 Sudoeste 0 -- -- 65
2019-12-08 15:00:00 19.9 4 Oeste 23 Oeste 0 -- -- 63
2019-12-08 14:00:00 20.5 5 Oeste 18 Noroeste -- -- -- 58
2019-12-08 13:00:00 19.6 5 Noroeste 11 Norte 0 -- -- 60
2019-12-08 12:00:00 19.6 3 Oeste 12 Oeste 0 -- -- 61
2019-12-08 11:00:00 19.9 5 Oeste 9 Oeste 0 -- -- 58
2019-12-08 10:00:00 18.9 3 Sudeste 17 Nordeste 0 -- -- 66
2019-12-08 09:00:00 17 5 Norte 12 Norte 0 -- -- 72
2019-12-08 08:00:00 16 4 Nordeste 15 Este 0 -- -- 71
2019-12-08 07:00:00 16.5 9 Este 15 Este 0 -- -- 70
2019-12-08 06:00:00 16.4 6 Nordeste 10 Norte 0 -- -- 74
2019-12-08 05:00:00 16 5 Nordeste 8 Nordeste 0 -- -- 76
2019-12-08 04:00:00 16.2 0 Calma 8 Nordeste 0 -- -- 73
2019-12-08 03:00:00 17 4 Nordeste 10 Nordeste 0 -- -- 71
2019-12-08 02:00:00 17 6 Nordeste 12 Norte 0 -- -- 70
2019-12-08 01:00:00 16.9 5 Nordeste 8 Nordeste 0 -- -- 72
2019-12-08 00:00:00 16.8 3 Norte 8 Norte 0 -- -- 73
2019-12-07 23:00:00 17.5 3 Nordeste 10 Sudeste 0 -- -- 68
2019-12-07 22:00:00 18.2 4 Sur 10 Sur 0 -- -- 66
2019-12-07 21:00:00 17.6 4 Norte 9 Norte 0 -- -- 70
2019-12-07 20:00:00 18.3 5 Este 8 Este 0 -- -- 67
2019-12-07 19:00:00 18.9 0 Calma 6 Noroeste 0 -- -- 66
2019-12-07 18:00:00 20 4 Noroeste 11 Noroeste 0 -- -- 65
2019-12-07 17:00:00 21.5 5 Noroeste 11 Noroeste 0 -- -- 61
2019-12-07 16:00:00 20.9 8 Oeste 12 Oeste 0 -- -- 63
2019-12-07 15:00:00 20.6 6 Sudoeste 12 Sudoeste 0 -- -- 65
2019-12-07 14:00:00 20.9 5 Oeste 14 Oeste 0 -- -- 62
2019-12-07 13:00:00 20.5 8 Oeste 13 Norte 0 -- -- 61
2019-12-07 12:00:00 20.8 6 Oeste 13 Oeste 0 -- -- 60
2019-12-07 11:00:00 21.7 6 Oeste 13 Oeste 0 -- -- 59
2019-12-07 10:00:00 18.9 0 Calma 5 Noroeste 0 -- -- 66
2019-12-07 09:00:00 17.7 4 Sudeste 10 Norte 0 -- -- 66
2019-12-07 08:00:00 16.7 4 Norte 10 Nordeste 0 -- -- 67
2019-12-07 07:00:00 17.3 4 Norte 12 Norte 0 -- -- 66
2019-12-07 06:00:00 17 5 Este 17 Norte 0 -- -- 66
2019-12-07 05:00:00 16.9 9 Nordeste 14 Nordeste 0 -- -- 66
2019-12-07 04:00:00 17.1 5 Nordeste 12 Nordeste 0 -- -- 70
2019-12-07 03:00:00 17.1 5 Nordeste 12 Nordeste 0 -- -- 72
2019-12-07 02:00:00 17.9 5 Este 19 Nordeste 0 -- -- 71
2019-12-07 01:00:00 18.4 14 Nordeste 24 Nordeste 0 -- -- 69
2019-12-07 00:00:00 17.8 6 Este 10 Este 0 -- -- 68
2019-12-06 23:00:00 17.3 0 Calma 8 Este 0 -- -- 63
2019-12-06 22:00:00 18.3 4 Este 16 Nordeste 0 -- -- 61
2019-12-06 21:00:00 18.9 8 Nordeste 15 Nordeste 0 -- -- 60
2019-12-06 20:00:00 18.6 0 Calma 5 Sur 0 -- -- 71
2019-12-06 19:00:00 19.1 3 Norte 18 Este 0 -- -- 65
2019-12-06 18:00:00 20.5 5 Nordeste 28 Sudeste -- -- -- 57
2019-12-06 17:00:00 22 6 Nordeste 21 Oeste 0 -- -- 52
2019-12-06 16:00:00 22.5 13 Sudoeste 24 Sudoeste 0 -- -- 54
2019-12-06 15:00:00 23 9 Oeste 24 Oeste 0 -- -- 53
2019-12-06 14:00:00 23.7 11 Sudoeste 23 Sudoeste 0 -- -- 46
2019-12-06 13:00:00 22.8 5 Noroeste 19 Sudoeste 0 -- -- 50
2019-12-06 12:00:00 22.6 7 Oeste 15 Oeste 0 -- -- 53
2019-12-06 11:00:00 21.7 5 Noroeste 14 Sur 0 -- -- 55
2019-12-06 10:00:00 19 2 Sudeste 7 Sudoeste 0 -- -- 64
2019-12-06 09:00:00 17.3 3 Nordeste 9 Norte 0 -- -- 70
2019-12-06 08:00:00 16.7 5 Nordeste 13 Nordeste 0 -- -- 69
2019-12-06 07:00:00 17.1 9 Nordeste 17 Nordeste 0 -- -- 65
2019-12-06 06:00:00 17 10 Nordeste 19 Nordeste 0 -- -- 67
2019-12-06 05:00:00 17 9 Nordeste 16 Nordeste 0 -- -- 65
2019-12-06 04:00:00 16.2 3 Nordeste 8 Nordeste 0 -- -- 67
2019-12-06 03:00:00 16.9 3 Nordeste 9 Este 0 -- -- 64
2019-12-06 02:00:00 17.5 5 Nordeste 13 Norte 0 -- -- 61
2019-12-06 01:00:00 17.7 5 Nordeste 18 Nordeste 0 -- -- 60
2019-12-06 00:00:00 17.5 5 Este 15 Nordeste 0 -- -- 60
2019-12-05 23:00:00 18.1 5 Nordeste 17 Nordeste 0 -- -- 57
2019-12-05 22:00:00 18.2 8 Nordeste 24 Nordeste 0 -- -- 55
2019-12-05 21:00:00 17.8 7 Nordeste 15 Nordeste 0 -- -- 58
2019-12-05 20:00:00 17.3 2 Norte 6 Norte 0 -- -- 64
2019-12-05 19:00:00 18.4 3 Noroeste 20 Nordeste 0 -- -- 59
2019-12-05 18:00:00 19.6 8 Nordeste 23 Norte 0 -- -- 55
2019-12-05 17:00:00 20.3 5 Nordeste 25 Nordeste 0 -- -- 55
2019-12-05 16:00:00 21.3 7 Sudoeste 22 Oeste 0 -- -- 55
2019-12-05 15:00:00 20.5 13 Oeste 26 Sudoeste 0 -- -- 58
2019-12-05 14:00:00 21.9 6 Noroeste 19 Sudoeste 0 -- -- 49
2019-12-05 13:00:00 22.1 7 Oeste 19 Sur 0 -- -- 46
2019-12-05 12:00:00 21.7 8 Norte 22 Este 0 -- -- 47
2019-12-05 11:00:00 21 6 Sudoeste 13 Sudoeste 0 -- -- 50
2019-12-05 10:00:00 18.6 5 Sudoeste 13 Sudoeste 0 -- -- 58
2019-12-05 09:00:00 16.7 3 Nordeste 9 Este 0 -- -- 69
2019-12-05 08:00:00 15.6 0 Calma 6 Nordeste 0 -- -- 74
2019-12-05 07:00:00 16.7 3 Sudoeste 13 Norte 0 -- -- 72
2019-12-05 06:00:00 17.2 4 Nordeste 18 Norte 0 -- -- 72
2019-12-05 05:00:00 17.5 7 Nordeste 19 Nordeste 0 -- -- 70
2019-12-05 04:00:00 17.1 8 Nordeste 17 Este 0 -- -- 68
2019-12-05 03:00:00 15.7 4 Nordeste 8 Este 0 -- -- 70
2019-12-05 02:00:00 17 2 Norte 18 Este 0 -- -- 65
2019-12-05 01:00:00 17.7 9 Nordeste 20 Nordeste 0 -- -- 64
2019-12-05 00:00:00 17.4 4 Oeste 23 Sudoeste 0 -- -- 79
2019-12-04 23:00:00 18 3 Sudeste 18 Nordeste 0 -- -- 63
2019-12-04 22:00:00 17.9 10 Nordeste 18 Nordeste 0 -- -- 63
2019-12-04 21:00:00 17.5 3 Este 16 Nordeste 0 -- -- 63
2019-12-04 20:00:00 18.7 9 Nordeste 17 Nordeste 0 -- -- 61
2019-12-04 19:00:00 19.1 3 Sudoeste 19 Nordeste 0 -- -- 57
2019-12-04 18:00:00 20.1 10 Nordeste 21 Este 0 -- -- 55
2019-12-04 17:00:00 20.5 5 Oeste 20 Sudoeste 0 -- -- 56
2019-12-04 16:00:00 21.6 9 Oeste 21 Sudoeste 0 -- -- 49
2019-12-04 15:00:00 21.8 8 Sudoeste 14 Noroeste 0 -- -- 50
2019-12-04 14:00:00 20.7 7 Sudoeste 15 Oeste 0 -- -- 53
2019-12-04 13:00:00 20.6 4 Oeste 14 Sudoeste 0 -- -- 51
2019-12-04 12:00:00 21.5 5 Oeste 18 Sudoeste 0 -- -- 46
2019-12-04 11:00:00 22.2 5 Sudoeste 15 Sudoeste 0 -- -- 44
2019-12-04 10:00:00 19.5 6 Nordeste 14 Nordeste 0 -- -- 48
2019-12-04 09:00:00 18.1 9 Nordeste 17 Nordeste 0 -- -- 53
2019-12-04 08:00:00 17 3 Nordeste 9 Nordeste 0 -- -- 57
2019-12-04 07:00:00 16.8 2 Sur 5 Este 0 -- -- 61
2019-12-04 06:00:00 17.7 0 Calma 6 Nordeste 0 -- -- 60
2019-12-04 05:00:00 17.7 0 Calma 11 Norte 0 -- -- 62
2019-12-04 04:00:00 18 4 Noroeste 10 Oeste 0 -- -- 61
2019-12-04 03:00:00 17.4 4 Norte 9 Este 0 -- -- 62
2019-12-04 02:00:00 17.4 6 Este 12 Nordeste 0 -- -- 63
2019-12-04 01:00:00 18.3 7 Nordeste 24 Nordeste 0 -- -- 60
2019-12-04 00:00:00 18.6 14 Nordeste 27 Nordeste 0 -- -- 60
2019-12-03 23:00:00 18.8 7 Nordeste 21 Nordeste 0 -- -- 60
2019-12-03 22:00:00 18.9 3 Norte 10 Sudeste 0 -- -- 60
2019-12-03 21:00:00 18.9 3 Sudoeste 11 Sur 0 -- -- 63
2019-12-03 20:00:00 19 0 Calma 18 Sudoeste 0 -- -- 63
2019-12-03 19:00:00 19.1 5 Sudoeste 14 Oeste 0 -- -- 66
2019-12-03 18:00:00 19.9 7 Oeste 17 Sudoeste 0 -- -- 63
2019-12-03 17:00:00 21.2 9 Sudoeste 21 Oeste 0 -- -- 59
2019-12-03 16:00:00 21.7 9 Sudoeste 21 Sudoeste 0 -- -- 56
2019-12-03 15:00:00 21.4 10 Sudoeste 24 Sudoeste 0 -- -- 55
2019-12-03 14:00:00 22.6 12 Sudoeste 22 Sudoeste 0 -- -- 53
2019-12-03 13:00:00 24.2 8 Oeste 21 Sudoeste 0 -- -- 52
2019-12-03 12:00:00 21.7 6 Sudoeste 17 Oeste 0 -- -- 60
2019-12-03 11:00:00 20.8 4 Sudoeste 9 Oeste 0 -- -- 63
2019-12-03 10:00:00 19.3 0 Calma 5 Sudoeste 0 -- -- 69
2019-12-03 09:00:00 18.3 3 Nordeste 5 Nordeste 0 -- -- 74
2019-12-03 08:00:00 17.7 2 Este 5 Nordeste 0 -- -- 75
2019-12-03 07:00:00 17.3 2 Sur 9 Nordeste 0 -- -- 75
2019-12-03 06:00:00 17.7 5 Nordeste 9 Nordeste 0 -- -- 74
2019-12-03 05:00:00 17.8 4 Este 12 Este 0 -- -- 73
2019-12-03 04:00:00 16.7 0 Calma 9 Sudoeste 0 -- -- 72
2019-12-03 03:00:00 17.7 3 Nordeste 12 Nordeste 0 -- -- 67
2019-12-03 02:00:00 17.9 6 Nordeste 12 Nordeste 0 -- -- 70
2019-12-03 01:00:00 17.8 4 Este 8 Este 0 -- -- 68
2019-12-03 00:00:00 17.4 5 Este 7 Este 0 -- -- 63
2019-12-02 23:00:00 17.4 3 Sur 13 Nordeste 0 -- -- 60
2019-12-02 22:00:00 18.5 4 Nordeste 15 Nordeste 0 -- -- 56
2019-12-02 21:00:00 16.9 0 Calma 6 Nordeste 0 -- -- 65
2019-12-02 20:00:00 17.6 3 Sur 5 Sudeste 0 -- -- 64
2019-12-02 19:00:00 18.8 0 Calma 13 Oeste 0 -- -- 62
2019-12-02 18:00:00 20.3 6 Oeste 22 Oeste 0 -- -- 58
2019-12-02 17:00:00 21.6 9 Oeste 28 Oeste 0 -- -- 56
2019-12-02 16:00:00 22.6 12 Noroeste 27 Noroeste 0 -- -- 54
2019-12-02 15:00:00 23 10 Noroeste 24 Oeste 0 -- -- 56
2019-12-02 14:00:00 23.7 7 Oeste 21 Sudoeste 0 -- -- 54
2019-12-02 13:00:00 21.7 10 Oeste 20 Oeste 0 -- -- 60
2019-12-02 12:00:00 21.7 4 Noroeste 18 Oeste 0 -- -- 60
2019-12-02 11:00:00 21.2 6 Noroeste 22 Nordeste 0 -- -- 64
2019-12-02 10:00:00 20.1 9 Nordeste 22 Norte 0 -- -- 68
2019-12-02 09:00:00 19.1 5 Nordeste 18 Nordeste 0 -- -- 70
2019-12-02 08:00:00 18.4 3 Este 10 Nordeste 0 -- -- 72
2019-12-02 07:00:00 18.2 2 Nordeste 5 Nordeste 0 -- -- 74
2019-12-02 06:00:00 17.6 0 Calma 6 Norte 0 -- -- 75
2019-12-02 05:00:00 17.4 0 Calma 2 Nordeste 0 -- -- 77
2019-12-02 04:00:00 17.4 0 Calma 3 Nordeste 0 -- -- 76
2019-12-02 03:00:00 18.8 0 Calma 6 Norte 0 -- -- 74
2019-12-02 02:00:00 19 3 Noroeste 8 Norte 0 -- -- 74
2019-12-02 01:00:00 18.9 2 Sur 5 Sudeste 0 -- -- 72
2019-12-02 00:00:00 18.9 0 Calma 5 Nordeste 0 -- -- 76
2019-12-01 23:00:00 18.6 2 Norte 7 Norte 0 -- -- 76
2019-12-01 22:00:00 18.4 2 Noroeste 10 Noroeste 0 -- -- 76
2019-12-01 21:00:00 18.7 0 Calma 5 Norte 0 -- -- 75
2019-12-01 20:00:00 19.3 3 Sudoeste 10 Noroeste 0 -- -- 73
2019-12-01 19:00:00 20.1 5 Norte 12 Nordeste 0 -- -- 71
2019-12-01 18:00:00 21.1 5 Noroeste 15 Sudoeste 0 -- -- 70
2019-12-01 17:00:00 23 5 Oeste 17 Sudoeste 0 -- -- 64
2019-12-01 16:00:00 23.6 7 Oeste 22 Oeste 0 -- -- 62
2019-12-01 15:00:00 23.3 6 Noroeste 19 Oeste 0 -- -- 64
2019-12-01 14:00:00 23.9 12 Sudoeste 22 Sudoeste 0 -- -- 62
2019-12-01 13:00:00 23.8 8 Noroeste 18 Noroeste 0 -- -- 62
2019-12-01 12:00:00 23 5 Oeste 16 Sur 0 -- -- 63
2019-12-01 11:00:00 22.2 6 Sudoeste 15 Sudoeste 0 -- -- 68
2019-12-01 10:00:00 20.1 3 Nordeste 8 Nordeste 0 -- -- 76
2019-12-01 09:00:00 18.1 5 Nordeste 10 Este 0 -- -- 82
2019-12-01 08:00:00 17.5 4 Nordeste 14 Nordeste 0 -- -- 85
2019-12-01 07:00:00 17.6 3 Norte 9 Nordeste 0 -- -- 85
2019-12-01 06:00:00 16.6 0 Calma 5 Este 0 -- -- 90
2019-12-01 05:00:00 17.1 0 Calma 8 Este 0 -- -- 88
2019-12-01 04:00:00 18.1 4 Este 10 Este 0 -- -- 85
2019-12-01 03:00:00 18 2 Este 8 Este 0 -- -- 80
2019-12-01 02:00:00 18.5 3 Noroeste 9 Nordeste 0 -- -- 86
2019-12-01 01:00:00 18.6 5 Oeste 14 Sudoeste 0 -- -- 83
2019-12-01 00:00:00 18.5 4 Este 6 Este 0 -- -- 83
2019-11-30 23:00:00 18.8 3 Este 6 Sur 0 -- -- 81
2019-11-30 22:00:00 18.6 0 Calma 5 Sudeste -- -- -- 81
2019-11-30 21:00:00 19.2 2 Sudeste 4 Sudeste 0 -- -- 79
2019-11-30 20:00:00 19.6 0 Calma 5 Este 0 -- -- 78
2019-11-30 19:00:00 21 3 Sur 8 Sur 0 -- -- 74
2019-11-30 18:00:00 23.4 3 Sudoeste 11 Sudoeste 0 -- -- 64
2019-11-30 17:00:00 25.7 6 Oeste 12 Sudoeste 0 -- -- 55
2019-11-30 16:00:00 26.4 8 Sudoeste 16 Sudoeste 0 -- -- 55
2019-11-30 15:00:00 27.1 8 Sudoeste 14 Sudoeste 0 -- -- 52
2019-11-30 14:00:00 26.5 7 Sudoeste 12 Sudoeste 0 -- -- 54
2019-11-30 13:00:00 26 6 Sudoeste 12 Sudoeste 0 -- -- 55
2019-11-30 12:00:00 25.4 5 Sur 13 Sudoeste 0 -- -- 56
2019-11-30 11:00:00 24.4 3 Sudeste 17 Sudoeste 0 -- -- 62
2019-11-30 10:00:00 21.7 4 Este 6 Este 0 -- -- 58
2019-11-30 09:00:00 19.2 3 Este 6 Este 0 -- -- 69
2019-11-30 08:00:00 17.2 0 Calma 3 Nordeste 0 -- -- 69
2019-11-30 07:00:00 16.7 2 Este 5 Sudeste 0 -- -- 70
2019-11-30 06:00:00 17.1 0 Calma 8 Nordeste 0 -- -- 63
2019-11-30 05:00:00 18.4 4 Sudeste 9 Sudeste 0 -- -- 62
2019-11-30 04:00:00 17.9 4 Este 8 Sudeste 0 -- -- 65
2019-11-30 03:00:00 18.6 4 Nordeste 7 Este 0 -- -- 72
2019-11-30 02:00:00 17.9 4 Este 10 Nordeste 0 -- -- 70
2019-11-30 01:00:00 18.4 4 Sur 8 Sudeste 0 -- -- 65
2019-11-30 00:00:00 17.9 2 Este 9 Sudeste 0 -- -- 66
2019-11-29 23:00:00 17.7 2 Este 4 Norte 0 -- -- 67
2019-11-29 22:00:00 18.5 0 Calma 6 Sur 0 -- -- 67
2019-11-29 21:00:00 18.7 0 Calma 9 Sur 0 -- -- 66
2019-11-29 20:00:00 20.7 0 Calma 4 Este 0 -- -- 65
2019-11-29 19:00:00 21.4 0 Calma 7 Sudeste 0 -- -- 71
2019-11-29 18:00:00 24.6 2 Oeste 8 Sudoeste 0 -- -- 59
2019-11-29 17:00:00 26.9 5 Oeste 13 Sudoeste 0 -- -- 46
2019-11-29 16:00:00 27.3 6 Sudoeste 13 Sudoeste 0 -- -- 42
2019-11-29 15:00:00 27.4 6 Oeste 20 Oeste 0 -- -- 45
2019-11-29 14:00:00 27.8 10 Sudoeste 28 Sudoeste 0 -- -- 44
2019-11-29 13:00:00 30.3 9 Nordeste 34 Nordeste 0 -- -- 20
2019-11-29 12:00:00 27.6 10 Oeste 26 Este 0 -- -- 29
2019-11-29 11:00:00 23.7 8 Sudoeste 17 Sur 0 -- -- 54
2019-11-29 10:00:00 20.1 5 Sur 9 Sudoeste 0 -- -- 69
2019-11-29 09:00:00 17.1 3 Sur 7 Sur 0 -- -- 78
2019-11-29 08:00:00 17.2 3 Este 7 Este 0 -- -- 77
2019-11-29 07:00:00 17.3 2 Nordeste 9 Este 0 -- -- 73
2019-11-29 06:00:00 17.9 5 Este 12 Nordeste 0 -- -- 72
2019-11-29 05:00:00 17.7 3 Este 10 Nordeste 0 -- -- 72
2019-11-29 04:00:00 18.6 6 Este 11 Este 0 -- -- 68
2019-11-29 03:00:00 19 4 Este 8 Este 0 -- -- 71
2019-11-29 02:00:00 18.4 4 Nordeste 11 Nordeste 0 -- -- 73
2019-11-29 01:00:00 17.5 0 Calma 9 Este 0 -- -- 76
2019-11-29 00:00:00 18.2 3 Este 7 Este 0 -- -- 74
2019-11-28 23:00:00 18.2 3 Este 7 Este 0 -- -- 72
2019-11-28 22:00:00 18.5 0 Calma 6 Este 0 -- -- 75
2019-11-28 21:00:00 18.4 0 Calma 6 Este 0 -- -- 82
2019-11-28 20:00:00 19 4 Sur 7 Sur 0 -- -- 80
2019-11-28 19:00:00 19.1 0 Calma 9 Sudoeste 0 -- -- 79
2019-11-28 18:00:00 20.6 6 Sudoeste 10 Sudoeste 0 -- -- 72
2019-11-28 17:00:00 21.7 2 Oeste 8 Sudoeste 0 -- -- 67
2019-11-28 16:00:00 21.5 3 Oeste 8 Oeste 0 -- -- 68
2019-11-28 15:00:00 21.4 5 Sudoeste 13 Oeste 0 -- -- 69
2019-11-28 14:00:00 23.1 5 Oeste 15 Sudoeste 0 -- -- 64
2019-11-28 13:00:00 23.3 7 Sudoeste 15 Sudoeste 0 -- -- 63
2019-11-28 12:00:00 23.1 7 Oeste 13 Sudoeste 0 -- -- 63
2019-11-28 11:00:00 21.6 5 Oeste 10 Noroeste 0 -- -- 68
2019-11-28 10:00:00 18.8 4 Norte 10 Noroeste 0 -- -- 78
2019-11-28 09:00:00 17.7 4 Norte 10 Nordeste 0 -- -- 81
2019-11-28 08:00:00 17 4 Nordeste 10 Norte 0 -- -- 82
2019-11-28 07:00:00 17.1 5 Nordeste 8 Nordeste 0 -- -- 82
2019-11-28 06:00:00 17.4 5 Este 9 Este 0 -- -- 81
2019-11-28 05:00:00 17.5 4 Este 9 Este 0 -- -- 81
2019-11-28 04:00:00 17.1 4 Este 9 Este 0 -- -- 83
2019-11-28 03:00:00 16.7 4 Este 8 Este 0 -- -- 79
2019-11-28 02:00:00 16.9 2 Nordeste 7 Norte 0 -- -- 85
2019-11-28 01:00:00 16.9 0 Calma 4 Norte 0 -- -- 85
2019-11-28 00:00:00 17.2 2 Nordeste 4 Nordeste 0 -- -- 83
2019-11-27 23:00:00 17.2 0 Calma 4 Este 0 -- -- 85
2019-11-27 22:00:00 17.9 2 Sudeste 4 Este 0 -- -- 80
2019-11-27 21:00:00 18.4 0 Calma 3 Sudeste 0 -- -- 81
2019-11-27 20:00:00 18.4 0 Calma 3 Sur 0 -- -- 73
2019-11-27 19:00:00 19.2 0 Calma 6 Oeste 0 -- -- 75
2019-11-27 18:00:00 21 4 Oeste 12 Oeste 0 -- -- 67
2019-11-27 17:00:00 22.9 5 Oeste 14 Sudoeste 0 -- -- 60
2019-11-27 16:00:00 23.5 8 Oeste 15 Oeste 0 -- -- 60
2019-11-27 15:00:00 23.3 7 Oeste 17 Sudoeste 0 -- -- 60
2019-11-27 14:00:00 23.6 10 Oeste 18 Oeste 0 -- -- 57
2019-11-27 13:00:00 23.4 8 Sudoeste 17 Sudoeste 0 -- -- 57
2019-11-27 05:00:00 -- -- -- -- -- -- -- -- --
2019-11-27 04:00:00 -- -- -- -- -- -- -- -- --
2019-11-27 03:00:00 -- -- -- -- -- -- -- -- --
2019-11-27 02:00:00 -- -- -- -- -- -- -- -- --
2019-11-27 01:00:00 17.7 4 Nordeste 8 Norte 0 -- -- 82
2019-11-27 00:00:00 18 4 Nordeste 8 Nordeste 0 -- -- 80
2019-11-26 23:00:00 17.9 3 Norte 6 Norte 0 -- -- 80
2019-11-26 22:00:00 18.3 4 Norte 8 Norte 0 -- -- 79
2019-11-26 21:00:00 18.4 0 Calma 6 Norte 0 -- -- 78
2019-11-26 20:00:00 18.8 0 Calma 6 Noroeste 0 -- -- 76
2019-11-26 19:00:00 19.5 0 Calma 10 Noroeste 0 -- -- 71
2019-11-26 18:00:00 20.9 4 Noroeste 9 Noroeste 0 -- -- 71
2019-11-26 17:00:00 22.7 5 Oeste 18 Oeste 0 -- -- 65
2019-11-26 16:00:00 21.8 8 Sudoeste 16 Oeste 0 -- -- 65
2019-11-26 15:00:00 23.6 8 Sudoeste 17 Sudoeste 0 -- -- 58
2019-11-26 14:00:00 22.5 5 Oeste 15 Oeste 0 -- -- 60
2019-11-26 13:00:00 23.4 7 Oeste 16 Oeste 0 -- -- 57
2019-11-26 12:00:00 21.5 8 Oeste 17 Sudoeste 0 -- -- 65
2019-11-26 11:00:00 21.2 5 Sudoeste 14 Sudoeste 0 -- -- 65
2019-11-26 10:00:00 20.1 3 Norte 14 Norte 0 -- -- 67
2019-11-26 09:00:00 18.3 4 Nordeste 13 Nordeste 0 -- -- 72
2019-11-26 08:00:00 16.6 0 Calma 12 Este 0 -- -- 76
2019-11-26 07:00:00 17 7 Este 13 Nordeste 0 -- -- 72
2019-11-26 06:00:00 16.9 9 Este 12 Este 0 -- -- 70
2019-11-26 05:00:00 16.9 6 Nordeste 9 Nordeste 0 -- -- 74
2019-11-26 04:00:00 16.8 0 Calma 8 Norte 0 -- -- 72
2019-11-26 03:00:00 17.5 3 Norte 12 Norte 0 -- -- 68
2019-11-26 02:00:00 17.2 4 Norte 10 Nordeste 0 -- -- 69
2019-11-26 01:00:00 17.5 6 Este 10 Nordeste 0 -- -- 69
2019-11-26 00:00:00 17.6 8 Este 10 Este 0 -- -- 67
2019-11-25 23:00:00 17.5 0 Calma 5 Nordeste 0 -- -- 71
2019-11-25 22:00:00 18.3 4 Nordeste 8 Nordeste 0 -- -- 70
2019-11-25 21:00:00 18.2 0 Calma 2 Nordeste 0 -- -- 69
2019-11-25 20:00:00 19.1 0 Calma 4 Sur 0 -- -- 66
2019-11-25 19:00:00 19.2 2 Sur 3 Sur 0 -- -- 65
2019-11-25 18:00:00 19.9 0 Calma 6 Sudoeste 0 -- -- 62
2019-11-25 17:00:00 20.2 3 Oeste 10 Oeste 0 -- -- 63
2019-11-25 16:00:00 20.4 5 Oeste 13 Oeste 0 -- -- 63
2019-11-25 15:00:00 21.1 6 Oeste 16 Sudoeste 0 -- -- 58
2019-11-25 14:00:00 23.5 6 Oeste 15 Sur 0 -- -- 52
2019-11-25 13:00:00 23.4 6 Oeste 17 Oeste 0 -- -- 52
2019-11-25 12:00:00 23 7 Oeste 14 Sudoeste 0 -- -- 53
2019-11-25 11:00:00 21.6 4 Oeste 10 Sudoeste 0 -- -- 57
2019-11-25 10:00:00 20 5 Oeste 10 Oeste 0 -- -- 62
2019-11-25 09:00:00 17.9 0 Calma 5 Este 0 -- -- 70
2019-11-25 08:00:00 17.5 5 Este 12 Este 0 -- -- 65
2019-11-25 07:00:00 17.7 3 Este 5 Nordeste 0 -- -- 70
2019-11-25 06:00:00 17.9 0 Calma 3 Nordeste 0 -- -- 71
2019-11-25 05:00:00 18.6 0 Calma 3 Sudeste 0 -- -- 71
2019-11-25 04:00:00 18.7 3 Sudeste 6 Sudeste 0 -- -- 68
2019-11-25 03:00:00 18.8 2 Sur 5 Sur 0 -- -- 71
2019-11-25 02:00:00 19.2 0 Calma 7 Noroeste 0 -- -- 70
2019-11-25 01:00:00 19.5 3 Noroeste 8 Oeste 0 -- -- 72
2019-11-25 00:00:00 19.6 3 Norte 8 Norte 0 -- -- 73
2019-11-24 23:00:00 19.3 0 Calma 4 Sur 0 -- -- 72
2019-11-24 22:00:00 19.6 5 Sur 8 Sudeste 0 -- -- 70
2019-11-24 21:00:00 19.6 4 Sudeste 8 Nordeste 0 -- -- 70
2019-11-24 20:00:00 19.7 5 Nordeste 9 Nordeste 0 -- -- 76
2019-11-24 19:00:00 20.4 2 Norte 6 Oeste 0 -- -- 73
2019-11-24 18:00:00 21 2 Oeste 12 Oeste 0 -- -- 70
2019-11-24 17:00:00 22.2 5 Sudoeste 14 Oeste 0 -- -- 67
2019-11-24 16:00:00 23 5 Oeste 17 Oeste 0 -- -- 65
2019-11-24 15:00:00 24.2 7 Oeste 16 Oeste 0 -- -- 60
2019-11-24 14:00:00 24.6 10 Sudoeste 19 Oeste 0 -- -- 62
2019-11-24 13:00:00 24.4 8 Noroeste 18 Oeste 0 -- -- 61
2019-11-24 12:00:00 24.6 8 Oeste 15 Sudoeste 0 -- -- 61
2019-11-24 11:00:00 23.5 8 Oeste 13 Sudoeste 0 -- -- 64
2019-11-24 10:00:00 20.9 5 Noroeste 12 Noroeste 0 -- -- 72
2019-11-24 09:00:00 17.7 3 Sudoeste 5 Este 0 -- -- 79
2019-11-24 08:00:00 16.5 0 Calma 4 Este 0 -- -- 81
2019-11-24 07:00:00 17.4 0 Calma 11 Nordeste 0 -- -- 79
2019-11-24 06:00:00 18.1 8 Nordeste 12 Nordeste 0 -- -- 69
2019-11-24 05:00:00 18.5 7 Este 10 Este 0 -- -- 75
2019-11-24 04:00:00 18.2 0 Calma 5 Este 0 -- -- 79
2019-11-24 03:00:00 18.6 0 Calma 8 Este 0 -- -- 78
2019-11-24 02:00:00 18.9 5 Nordeste 9 Nordeste 0 -- -- 79
2019-11-24 01:00:00 19.5 4 Noroeste 14 Nordeste 0 -- -- 80
2019-11-24 00:00:00 19.3 4 Noroeste 9 Oeste 0 -- -- 83
2019-11-23 23:00:00 19.4 3 Norte 6 Sur 0 -- -- 83
2019-11-23 22:00:00 19.4 0 Calma 6 Sur 0 -- -- 80
2019-11-23 21:00:00 20.4 2 Sur 7 Este 0 -- -- 75
2019-11-23 20:00:00 20.4 0 Calma 4 Oeste 0 -- -- 77
2019-11-23 19:00:00 20.9 3 Sudoeste 10 Oeste 0 -- -- 74
2019-11-23 18:00:00 22.7 5 Sudoeste 15 Sudoeste 0 -- -- 67
2019-11-23 17:00:00 24.3 7 Sudoeste 18 Sudoeste 0 -- -- 62
2019-11-23 16:00:00 25.1 9 Sudoeste 17 Oeste 0 -- -- 59
2019-11-23 15:00:00 24.7 11 Sudoeste 24 Sudoeste 0 -- -- 62
2019-11-23 14:00:00 23.4 5 Oeste 14 Sudoeste 0 -- -- 67
2019-11-23 13:00:00 22.6 7 Sudoeste 16 Sudoeste 0 -- -- 71
2019-11-23 12:00:00 22.8 9 Sudoeste 18 Oeste 0 -- -- 67
2019-11-23 11:00:00 23.5 4 Oeste 11 Este 0 -- -- 61
2019-11-23 10:00:00 21.9 4 Nordeste 10 Este 0 -- -- 65
2019-11-23 09:00:00 19.3 3 Este 10 Este 0 -- -- 72
2019-11-23 08:00:00 18.5 8 Este 14 Este 0 -- -- 72
2019-11-23 07:00:00 17.5 9 Este 13 Este 0 -- -- 74
2019-11-23 06:00:00 16.2 0 Calma 5 Nordeste 0 -- -- 80
2019-11-23 05:00:00 17 2 Nordeste 7 Este 0 -- -- 76
2019-11-23 04:00:00 17.4 0 Calma 12 Este 0 -- -- 75
2019-11-23 03:00:00 18.4 6 Este 9 Este 0 -- -- 67
2019-11-23 02:00:00 18.6 5 Este 12 Este 0 -- -- 66
2019-11-23 01:00:00 18.2 3 Sudeste 8 Sur 0 -- -- 77
2019-11-23 00:00:00 19.2 4 Este 22 Nordeste 0 -- -- 68
2019-11-22 23:00:00 18.8 3 Nordeste 9 Nordeste 0 -- -- 78
2019-11-22 22:00:00 18.2 4 Sudeste 7 Este 0 -- -- 81
2019-11-22 21:00:00 18.8 0 Calma 8 Noroeste 0 -- -- 80
2019-11-22 20:00:00 19.1 2 Sudoeste 5 Noroeste 0 -- -- 76
2019-11-22 19:00:00 19.9 0 Calma 4 Sudoeste 0 -- -- 72
2019-11-22 18:00:00 21.9 3 Sudoeste 12 Noroeste 0 -- -- 65
2019-11-22 17:00:00 23.5 6 Oeste 14 Oeste 0 -- -- 63
2019-11-22 16:00:00 24.3 6 Oeste 17 Oeste 0 -- -- 61
2019-11-22 15:00:00 23.2 7 Oeste 17 Oeste 0 -- -- 64
2019-11-22 14:00:00 22.6 5 Oeste 16 Sudoeste 0 -- -- 68
2019-11-22 13:00:00 24.1 10 Oeste 19 Sudoeste 0 -- -- 63
2019-11-22 12:00:00 24.1 9 Sudoeste 17 Oeste 0 -- -- 63
2019-11-22 11:00:00 23 7 Sudoeste 12 Sudoeste 0 -- -- 65
2019-11-22 10:00:00 20.3 3 Sudoeste 7 Sudoeste 0 -- -- 72
2019-11-22 09:00:00 18.3 0 Calma 10 Nordeste 0 -- -- 74
2019-11-22 08:00:00 17.7 4 Nordeste 11 Este 0 -- -- 75
2019-11-22 07:00:00 17.9 8 Este 12 Este 0 -- -- 76
2019-11-22 06:00:00 17.8 8 Este 10 Nordeste 0 -- -- 76
2019-11-22 05:00:00 17.8 8 Este 10 Nordeste 0 -- -- 79
2019-11-22 04:00:00 18.1 3 Este 12 Nordeste 0 -- -- 76
2019-11-22 03:00:00 18.5 4 Sudeste 6 Oeste 0 -- -- 92
2019-11-22 02:00:00 18.9 4 Noroeste 21 Norte 0 -- -- 91
2019-11-22 01:00:00 19.3 7 Oeste 23 Oeste 1 -- -- 88
2019-11-22 00:00:00 19.4 6 Noroeste 24 Oeste 0.6 -- -- 90
2019-11-21 23:00:00 20.1 7 Oeste 25 Oeste 0 -- -- 84
2019-11-21 22:00:00 20.3 8 Oeste 29 Oeste 0 -- -- 83
2019-11-21 21:00:00 20.6 8 Sudoeste 20 Oeste 0 -- -- 77
2019-11-21 20:00:00 20.5 6 Sudoeste 29 Sudoeste 0 -- -- 76
2019-11-21 19:00:00 20.5 11 Sudoeste 32 Sudoeste 0 -- -- 74
2019-11-21 18:00:00 21.2 8 Sudoeste 33 Oeste 0 -- -- 69
2019-11-21 17:00:00 22.4 12 Noroeste 26 Noroeste 0 -- -- 65
2019-11-21 16:00:00 23.2 10 Noroeste 28 Oeste 0 -- -- 60
2019-11-21 15:00:00 21.6 9 Noroeste 25 Noroeste 0 -- -- 64
2019-11-21 14:00:00 21.4 10 Noroeste 29 Noroeste 0 -- -- 62
2019-11-21 13:00:00 22.4 14 Noroeste 33 Noroeste 0 -- -- 61
2019-11-21 12:00:00 22.3 12 Oeste 24 Oeste 0 -- -- 61
2019-11-21 11:00:00 21.9 10 Oeste 28 Noroeste 0 -- -- 61
2019-11-21 10:00:00 20.5 10 Oeste 21 Sudoeste 0 -- -- 66
2019-11-21 09:00:00 18.2 4 Oeste 16 Noroeste 0 -- -- 70
2019-11-21 08:00:00 17.8 4 Oeste 19 Oeste 0 -- -- 73
2019-11-21 07:00:00 -- -- -- -- -- -- -- -- --
2019-11-21 06:00:00 -- -- -- -- -- -- -- -- --
2019-11-21 05:00:00 -- -- -- -- -- -- -- -- --
2019-11-21 04:00:00 -- -- -- -- -- -- -- -- --
2019-11-21 03:00:00 -- -- -- -- -- -- -- -- --
2019-11-21 02:00:00 -- -- -- -- -- -- -- -- --
2019-11-21 01:00:00 -- -- -- -- -- -- -- -- --
2019-11-21 00:00:00 -- -- -- -- -- -- -- -- --
2019-11-20 23:00:00 -- -- -- -- -- -- -- -- --
2019-11-20 22:00:00 -- -- -- -- -- -- -- -- --
2019-11-20 21:00:00 -- -- -- -- -- -- -- -- --
2019-11-20 20:00:00 -- -- -- -- -- -- -- -- --
2019-11-20 19:00:00 -- -- -- -- -- -- -- -- --
2019-11-20 18:00:00 20.5 9 Noroeste 24 Noroeste 0 -- -- 77
2019-11-20 17:00:00 22 12 Noroeste 26 Oeste 0 -- -- 64
2019-11-20 16:00:00 22.6 13 Oeste 32 Oeste 0 -- -- 68
2019-11-20 15:00:00 22.8 16 Oeste 32 Oeste 0 -- -- 61
2019-11-20 14:00:00 22.4 13 Oeste 32 Sudoeste 0 -- -- 63
2019-11-20 13:00:00 22.1 10 Oeste 26 Sudoeste 0 -- -- 64
2019-11-20 12:00:00 22.2 10 Oeste 22 Oeste 0 -- -- 63
2019-11-20 11:00:00 21.7 12 Oeste 19 Sudoeste 0 -- -- 65
2019-11-20 10:00:00 20.2 5 Noroeste 13 Noroeste 0 -- -- 72
2019-11-20 09:00:00 17.2 4 Noroeste 10 Oeste 0 -- -- 80
2019-11-20 08:00:00 15.8 0 Calma 7 Nordeste 0 -- -- 78
2019-11-20 07:00:00 16 3 Nordeste 7 Norte 0 -- -- 76
2019-11-20 06:00:00 16.4 2 Nordeste 7 Nordeste 0 -- -- 75
2019-11-20 05:00:00 16.5 2 Norte 8 Norte 0 -- -- 72
2019-11-20 04:00:00 15.8 2 Norte 8 Norte 0 -- -- 73
2019-11-20 03:00:00 17.1 4 Nordeste 6 Este 0 -- -- 67
2019-11-20 02:00:00 16.5 2 Nordeste 11 Este 0 -- -- 66
2019-11-20 01:00:00 17.3 6 Este 14 Nordeste 0 -- -- 60
2019-11-20 00:00:00 17 5 Nordeste 9 Nordeste 0 -- -- 63
2019-11-19 23:00:00 17.5 6 Este 8 Este 0 -- -- 66
2019-11-19 22:00:00 17.2 2 Este 6 Este 0 -- -- 66
2019-11-19 21:00:00 17.6 0 Calma 4 Nordeste 0 -- -- 69
2019-11-19 20:00:00 18 0 Calma 6 Sudeste 0 -- -- 71
2019-11-19 19:00:00 19 0 Calma 17 Noroeste 0 -- -- 70
2019-11-19 18:00:00 20 9 Oeste 23 Oeste 0 -- -- 66
2019-11-19 17:00:00 21.6 10 Noroeste 24 Oeste 0 -- -- 61
2019-11-19 16:00:00 22.6 11 Noroeste 26 Noroeste 0 -- -- 57
2019-11-19 15:00:00 22 13 Noroeste 25 Oeste 0 -- -- 60
2019-11-19 14:00:00 23.2 12 Oeste 29 Oeste 0 -- -- 54
2019-11-19 13:00:00 23.7 11 Oeste 20 Sudoeste 0 -- -- 50
2019-11-19 12:00:00 23.3 8 Oeste 15 Sudoeste 0 -- -- 46
2019-11-19 11:00:00 22.5 7 Oeste 13 Oeste 0 -- -- 52
2019-11-19 10:00:00 19.7 4 Noroeste 8 Norte 0 -- -- 60
2019-11-19 09:00:00 16.8 0 Calma 5 Nordeste 0 -- -- 71
2019-11-19 08:00:00 16.5 4 Este 12 Este 0 -- -- 61
2019-11-19 07:00:00 16.1 5 Este 10 Nordeste 0 -- -- 73
2019-11-19 06:00:00 16.7 6 Este 11 Este 0 -- -- 69
2019-11-19 05:00:00 15.7 3 Norte 8 Nordeste 0 -- -- 75
2019-11-19 04:00:00 16.3 2 Nordeste 5 Norte 0 -- -- 73
2019-11-19 03:00:00 16.7 2 Nordeste 8 Este 0 -- -- 73
2019-11-19 02:00:00 17.4 6 Este 8 Este 0 -- -- 70
2019-11-19 01:00:00 17.3 4 Nordeste 6 Nordeste 0 -- -- 74
2019-11-19 00:00:00 17.5 3 Nordeste 6 Nordeste 0 -- -- 70
2019-11-18 23:00:00 17 0 Calma 8 Este 0 -- -- 70
2019-11-18 22:00:00 17.9 4 Nordeste 8 Nordeste 0 -- -- 71
2019-11-18 21:00:00 18 3 Este 4 Este 0 -- -- 68
2019-11-18 20:00:00 18.2 0 Calma 3 Oeste 0 -- -- 70
2019-11-18 19:00:00 19.2 0 Calma 6 Sudoeste 0 -- -- 65
2019-11-18 18:00:00 21.2 3 Sudoeste 12 Oeste 0 -- -- 57
2019-11-18 17:00:00 21.6 4 Oeste 17 Oeste 0 -- -- 57
2019-11-18 16:00:00 22.7 6 Oeste 19 Oeste 0 -- -- 54
2019-11-18 15:00:00 23.2 10 Oeste 26 Sudoeste 0 -- -- 51
2019-11-18 14:00:00 23.2 10 Noroeste 21 Oeste 0 -- -- 49
2019-11-18 13:00:00 23.2 10 Oeste 22 Sudoeste 0 -- -- 49
2019-11-18 12:00:00 23.2 6 Oeste 14 Sudoeste 0 -- -- 49
2019-11-18 11:00:00 22.3 6 Sudoeste 12 Sudoeste 0 -- -- 51
2019-11-18 10:00:00 20.1 3 Oeste 6 Este 0 -- -- 57
2019-11-18 09:00:00 17.4 2 Nordeste 9 Nordeste 0 -- -- 65
2019-11-18 08:00:00 16.4 6 Nordeste 12 Nordeste 0 -- -- 68
2019-11-18 07:00:00 16.1 3 Nordeste 12 Este 0 -- -- 69
2019-11-18 06:00:00 16.2 0 Calma 11 Este 0 -- -- 68
2019-11-18 05:00:00 16.8 4 Este 10 Este 0 -- -- 68
2019-11-18 04:00:00 17.4 5 Este 10 Este 0 -- -- 65
2019-11-18 03:00:00 17.1 2 Nordeste 8 Este 0 -- -- 68
2019-11-18 02:00:00 18.2 6 Nordeste 14 Nordeste 0 -- -- 62
2019-11-18 01:00:00 17.8 3 Este 5 Este 0 -- -- 63
2019-11-18 00:00:00 18 0 Calma 6 Sudeste 0 -- -- 66
2019-11-17 23:00:00 18.5 3 Sudeste 6 Este 0 -- -- 61
2019-11-17 22:00:00 18.8 2 Este 9 Sudeste 0 -- -- 60
2019-11-17 21:00:00 18.4 3 Sur 7 Sudoeste 0 -- -- 63
2019-11-17 20:00:00 19 3 Este 12 Este 0 -- -- 59
2019-11-17 19:00:00 19.3 2 Norte 12 Noroeste 0 -- -- 62
2019-11-17 18:00:00 21 4 Sudoeste 12 Sur 0 -- -- 55
2019-11-17 17:00:00 21.5 4 Oeste 21 Oeste 0 -- -- 55
2019-11-17 16:00:00 21.4 5 Oeste 17 Sudoeste 0 -- -- 58
2019-11-17 15:00:00 20.9 8 Oeste 17 Oeste 0 -- -- 59
2019-11-17 14:00:00 21.1 8 Oeste 16 Noroeste 0 -- -- 59
2019-11-17 13:00:00 21.1 5 Noroeste 13 Oeste 0 -- -- 57
2019-11-17 12:00:00 20.6 4 Oeste 11 Oeste 0 -- -- 60
2019-11-17 11:00:00 20.4 5 Noroeste 12 Oeste 0 -- -- 60
2019-11-17 10:00:00 20.8 4 Sudoeste 12 Sudeste 0 -- -- 59
2019-11-17 09:00:00 17.4 5 Sudeste 9 Sudeste 0 -- -- 65
2019-11-17 08:00:00 17.4 0 Calma 12 Sudeste 0 -- -- 65
2019-11-17 07:00:00 17.8 3 Nordeste 7 Nordeste 0 -- -- 68
2019-11-17 06:00:00 17.7 3 Nordeste 9 Este 0 -- -- 62
2019-11-17 05:00:00 18.6 4 Sudeste 12 Nordeste 0 -- -- 59
2019-11-17 04:00:00 19 0 Calma 11 Sudeste 0 -- -- 60
2019-11-17 03:00:00 19.2 3 Nordeste 10 Este 0 -- -- 59
2019-11-17 02:00:00 19 2 Sudeste 5 Este 0 -- -- 60
2019-11-17 01:00:00 18.9 2 Nordeste 10 Sudeste 0 -- -- 62
2019-11-17 00:00:00 19.2 3 Nordeste 9 Nordeste 0 -- -- 59
2019-11-16 23:00:00 18.6 0 Calma 8 Sur 0 -- -- 64
2019-11-16 22:00:00 18.5 3 Sudoeste 8 Norte 0 -- -- 64
2019-11-16 21:00:00 18.8 3 Norte 11 Norte 0 -- -- 63
2019-11-16 20:00:00 19.3 3 Noroeste 12 Sudoeste 0 -- -- 64
2019-11-16 19:00:00 19.8 4 Noroeste 13 Oeste 0 -- -- 63
2019-11-16 18:00:00 20.9 6 Oeste 15 Sudoeste 0 -- -- 60
2019-11-16 17:00:00 22.5 9 Sudoeste 19 Sudoeste 0 -- -- 53
2019-11-16 16:00:00 22.2 10 Oeste 20 Sudoeste 0 -- -- 54
2019-11-16 15:00:00 23.1 9 Oeste 17 Oeste 0 -- -- 49
2019-11-16 14:00:00 22.9 9 Sudoeste 18 Oeste 0 -- -- 51
2019-11-16 13:00:00 23.6 11 Oeste 21 Oeste 0 -- -- 51
2019-11-16 12:00:00 23.1 7 Oeste 14 Oeste 0 -- -- 52
2019-11-16 11:00:00 21 3 Oeste 10 Oeste 0 -- -- 58
2019-11-16 10:00:00 20.4 5 Oeste 12 Oeste 0 -- -- 60
2019-11-16 09:00:00 18.4 0 Calma 9 Sudeste 0 -- -- 67
2019-11-16 08:00:00 17.9 6 Este 10 Este 0 -- -- 68
2019-11-16 07:00:00 17.3 5 Nordeste 9 Norte 0 -- -- 69
2019-11-16 06:00:00 16.8 3 Norte 8 Norte 0 -- -- 68
2019-11-16 05:00:00 16.5 0 Calma 8 Este 0 -- -- 68
2019-11-16 04:00:00 17.3 5 Este 8 Este 0 -- -- 65
2019-11-16 03:00:00 17.5 3 Nordeste 7 Nordeste 0 -- -- 66
2019-11-16 02:00:00 17.1 0 Calma 9 Este 0 -- -- 64
2019-11-16 01:00:00 18.6 2 Sudeste 5 Sudoeste 0 -- -- 61
2019-11-16 00:00:00 18.9 0 Calma 10 Noroeste 0 -- -- 61
2019-11-15 23:00:00 19 3 Norte 9 Nordeste 0 -- -- 59
2019-11-15 22:00:00 19.4 0 Calma 13 Sudeste 0 -- -- 58
2019-11-15 21:00:00 19.6 3 Sudeste 13 Noroeste 0 -- -- 60
2019-11-15 20:00:00 19.6 4 Noroeste 10 Noroeste 0 -- -- 61
2019-11-15 19:00:00 20.2 2 Norte 13 Oeste 0 -- -- 61
2019-11-15 18:00:00 20.7 7 Oeste 18 Oeste 0 -- -- 62
2019-11-15 17:00:00 21.9 7 Oeste 19 Sudoeste 0 -- -- 57
2019-11-15 16:00:00 23.6 6 Oeste 17 Noroeste 0 -- -- 53
2019-11-15 15:00:00 22.8 7 Oeste 17 Noroeste 0 -- -- 58
2019-11-15 14:00:00 21.7 7 Oeste 18 Noroeste 0 -- -- 63
2019-11-15 13:00:00 22.6 9 Oeste 21 Oeste 0 -- -- 58
2019-11-15 12:00:00 23.8 3 Sudoeste 19 Sudoeste 0 -- -- 53
2019-11-15 11:00:00 22.4 8 Sudoeste 16 Oeste 0 -- -- 58
2019-11-15 10:00:00 20.1 4 Oeste 11 Norte 0 -- -- 63
2019-11-15 09:00:00 18.8 5 Norte 9 Norte 0 -- -- 63
2019-11-15 08:00:00 18.3 7 Este 10 Este 0 -- -- 63
2019-11-15 07:00:00 18.8 4 Este 6 Este 0 -- -- 65
2019-11-15 06:00:00 19.3 3 Sudoeste 13 Noroeste 0 -- -- 65
2019-11-15 05:00:00 19.1 7 Norte 11 Norte 0 -- -- 64
2019-11-15 04:00:00 19 6 Nordeste 12 Nordeste 0 -- -- 62
2019-11-15 03:00:00 18.7 0 Calma 8 Nordeste 0 -- -- 67
2019-11-15 02:00:00 19 0 Calma 8 Sudeste 0 -- -- 67
2019-11-15 01:00:00 19.4 3 Este 9 Nordeste 0 -- -- 68
2019-11-15 00:00:00 19.1 4 Nordeste 11 Nordeste 0 -- -- 71
2019-11-14 23:00:00 18.4 3 Nordeste 7 Sur 0 -- -- 72
2019-11-14 22:00:00 19.1 0 Calma 4 Oeste 0 -- -- 69
2019-11-14 21:00:00 19.8 0 Calma 6 Oeste 0 -- -- 68
2019-11-14 20:00:00 20.4 2 Nordeste 6 Nordeste 0 -- -- 65
2019-11-14 19:00:00 20.5 2 Norte 4 Norte 0 -- -- 66
2019-11-14 18:00:00 22.5 3 Sudoeste 13 Oeste 0 -- -- 62
2019-11-14 17:00:00 23.6 6 Oeste 13 Oeste 0 -- -- 61
2019-11-14 16:00:00 23 5 Oeste 12 Oeste 0 -- -- 59
2019-11-14 15:00:00 23.1 6 Oeste 14 Oeste 0 -- -- 56
2019-11-14 14:00:00 23.4 6 Oeste 15 Sudoeste 0 -- -- 56
2019-11-14 13:00:00 22.8 9 Oeste 17 Oeste 0 -- -- 62
2019-11-14 12:00:00 22 10 Noroeste 18 Noroeste 0 -- -- 62
2019-11-14 11:00:00 22.5 5 Noroeste 10 Oeste 0 -- -- 57
2019-11-14 10:00:00 21.3 2 Oeste 10 Oeste 0 -- -- 60
2019-11-14 09:00:00 19.6 5 Norte 9 Norte 0 -- -- 67
2019-11-14 08:00:00 18.3 4 Nordeste 7 Nordeste 0 -- -- 69
2019-11-14 07:00:00 18.1 0 Calma 5 Nordeste 0 -- -- 71
2019-11-14 06:00:00 18.3 2 Nordeste 9 Nordeste 0 -- -- 69
2019-11-14 05:00:00 18.4 4 Nordeste 6 Norte 0 -- -- 71
2019-11-14 04:00:00 18.7 3 Nordeste 8 Este 0 -- -- 70
2019-11-14 03:00:00 18.8 0 Calma 10 Nordeste 0 -- -- 70
2019-11-14 02:00:00 18.6 3 Sudeste 8 Nordeste 0 -- -- 71
2019-11-14 01:00:00 18.6 2 Norte 7 Nordeste 0 -- -- 71
2019-11-14 00:00:00 19.3 5 Nordeste 11 Nordeste 0 -- -- 68
2019-11-13 23:00:00 19.1 4 Norte 6 Norte 0 -- -- 70
2019-11-13 22:00:00 19.5 0 Calma 4 Sur 0 -- -- 67
2019-11-13 21:00:00 20.1 0 Calma 12 Noroeste 0 -- -- 67
2019-11-13 20:00:00 19.7 0 Calma 8 Norte 0 -- -- 73
2019-11-13 19:00:00 20 0 Calma 4 Sudoeste 0 -- -- 70
2019-11-13 18:00:00 21.2 4 Sudoeste 12 Sudoeste 0 -- -- 66
2019-11-13 17:00:00 22.2 5 Oeste 15 Norte 0 -- -- 66
2019-11-13 16:00:00 24.3 8 Oeste 18 Sudoeste 0 -- -- 58
2019-11-13 15:00:00 24.4 6 Oeste 19 Oeste 0 -- -- 56
2019-11-13 14:00:00 24.4 10 Oeste 23 Oeste 0 -- -- 55
2019-11-13 13:00:00 23.2 10 Oeste 20 Oeste 0 -- -- 57
2019-11-13 12:00:00 23.8 9 Sudoeste 19 Oeste 0 -- -- 56
2019-11-13 11:00:00 23.4 5 Sudoeste 12 Oeste 0 -- -- 56
2019-11-13 10:00:00 22 4 Noroeste 8 Norte 0 -- -- 63
2019-11-13 09:00:00 19.5 4 Nordeste 12 Este 0 -- -- 72
2019-11-13 08:00:00 18.9 6 Este 9 Este 0 -- -- 73
2019-11-13 07:00:00 18.5 3 Nordeste 8 Este 0 -- -- 74
2019-11-13 06:00:00 19 8 Este 10 Este 0 -- -- 64
2019-11-13 05:00:00 17.4 2 Este 6 Oeste 0 -- -- 76
2019-11-13 04:00:00 18.7 0 Calma 6 Nordeste 0 -- -- 66
2019-11-13 03:00:00 18.3 0 Calma 5 Sudoeste 0 -- -- 83
2019-11-13 02:00:00 19 4 Nordeste 7 Nordeste 0 -- -- 78
2019-11-13 01:00:00 19.2 3 Este 7 Nordeste 0 -- -- 80
2019-11-13 00:00:00 19.6 3 Este 6 Este 0 -- -- 79
2019-11-12 23:00:00 19.2 4 Noroeste 9 Nordeste 0 -- -- 80
2019-11-12 22:00:00 19.5 3 Noroeste 8 Noroeste 0 -- -- 79
2019-11-12 21:00:00 19.4 2 Sudoeste 8 Nordeste 0 -- -- 79
2019-11-12 20:00:00 20.2 2 Norte 4 Nordeste 0 -- -- 77
2019-11-12 19:00:00 21.1 0 Calma 10 Sudoeste 0 -- -- 71
2019-11-12 18:00:00 23.3 4 Oeste 14 Oeste 0 -- -- 60
2019-11-12 17:00:00 25.1 5 Oeste 14 Sudoeste 0 -- -- 56
2019-11-12 16:00:00 25.1 9 Sudoeste 17 Oeste 0 -- -- 56
2019-11-12 15:00:00 25.5 9 Oeste 17 Oeste 0 -- -- 54
2019-11-12 14:00:00 24.7 9 Sudoeste 19 Sudoeste 0 -- -- 57
2019-11-12 13:00:00 24.9 10 Oeste 19 Oeste 0 -- -- 56
2019-11-12 12:00:00 24.7 9 Sudoeste 18 Oeste 0 -- -- 55
2019-11-12 11:00:00 23.5 4 Oeste 10 Oeste 0 -- -- 57
2019-11-12 10:00:00 21.4 5 Oeste 12 Oeste 0 -- -- 69
2019-11-12 09:00:00 19.4 0 Calma 9 Nordeste 0 -- -- 74
2019-11-12 08:00:00 19.6 4 Este 10 Sudeste 0 -- -- 73
2019-11-12 07:00:00 18.8 5 Norte 9 Norte 0 -- -- 76
2019-11-12 06:00:00 18.5 6 Este 9 Nordeste 0 -- -- 76
2019-11-12 05:00:00 18.6 6 Este 10 Este 0 -- -- 77
2019-11-12 04:00:00 18.6 6 Este 11 Este 0 -- -- 75
2019-11-12 03:00:00 18.8 4 Este 10 Nordeste 0 -- -- 74
2019-11-12 02:00:00 18.8 3 Nordeste 8 Nordeste 0 -- -- 75
2019-11-12 01:00:00 18.9 5 Este 8 Nordeste 0 -- -- 74
2019-11-12 00:00:00 18.8 2 Nordeste 9 Norte 0 -- -- 74
2019-11-11 23:00:00 19.2 5 Norte 9 Norte 0 -- -- 73
2019-11-11 22:00:00 19.7 6 Norte 15 Norte 0 -- -- 73
2019-11-11 21:00:00 19.3 4 Norte 7 Norte 0 -- -- 76
2019-11-11 20:00:00 20.1 3 Este 4 Sur 0 -- -- 73
2019-11-11 19:00:00 20.5 0 Calma 6 Noroeste 0 -- -- 67
2019-11-11 18:00:00 22.3 4 Sudoeste 10 Oeste 0 -- -- 60
2019-11-11 17:00:00 23.6 6 Sudoeste 15 Sudoeste 0 -- -- 60
2019-11-11 16:00:00 24 8 Oeste 18 Oeste 0 -- -- 58
2019-11-11 15:00:00 25 10 Sudoeste 23 Sudoeste 0 -- -- 54
2019-11-11 14:00:00 24.6 9 Sudoeste 17 Sudoeste 0 -- -- 51
2019-11-11 13:00:00 24.6 8 Sudoeste 16 Oeste 0 -- -- 51
2019-11-11 12:00:00 24 8 Sudoeste 18 Oeste 0 -- -- 55
2019-11-11 11:00:00 23.1 8 Oeste 14 Oeste 0 -- -- 58
2019-11-11 10:00:00 21.5 5 Oeste 9 Sur 0 -- -- 62
2019-11-11 09:00:00 19 3 Nordeste 10 Norte 0 -- -- 69
2019-11-11 08:00:00 17.1 0 Calma 9 Nordeste 0 -- -- 75
2019-11-11 07:00:00 17.4 4 Nordeste 10 Nordeste 0 -- -- 75
2019-11-11 06:00:00 18 5 Nordeste 9 Norte 0 -- -- 73
2019-11-11 05:00:00 18.5 5 Nordeste 8 Nordeste 0 -- -- 72
2019-11-11 04:00:00 17.7 0 Calma 8 Nordeste 0 -- -- 76
2019-11-11 03:00:00 18.3 0 Calma 5 Nordeste 0 -- -- 74
2019-11-11 02:00:00 17.2 0 Calma 4 Sudeste 0 -- -- 79
2019-11-11 01:00:00 17.8 0 Calma 5 Sudeste 0 -- -- 74
2019-11-11 00:00:00 19.4 2 Nordeste 11 Norte 0 -- -- 68